sensor_id;sensor_type;location;lat;lon;timestamp;P1;durP1;ratioP1;P2;durP2;ratioP2
8714;SDS011;4394;51.208;8.904;2023-04-09T00:01:48;43.20;;;23.43;;
8714;SDS011;4394;51.208;8.904;2023-04-09T00:04:36;40.37;;;22.47;;
8714;SDS011;4394;51.208;8.904;2023-04-09T00:07:24;36.43;;;21.93;;
8714;SDS011;4394;51.208;8.904;2023-04-09T00:10:13;42.77;;;22.73;;
8714;SDS011;4394;51.208;8.904;2023-04-09T00:13:01;39.30;;;21.67;;
8714;SDS011;4394;51.208;8.904;2023-04-09T00:15:51;42.97;;;23.83;;
8714;SDS011;4394;51.208;8.904;2023-04-09T00:18:39;47.53;;;24.77;;
8714;SDS011;4394;51.208;8.904;2023-04-09T00:21:27;40.03;;;22.33;;
8714;SDS011;4394;51.208;8.904;2023-04-09T00:24:15;38.23;;;22.77;;
8714;SDS011;4394;51.208;8.904;2023-04-09T00:27:03;39.90;;;21.47;;
8714;SDS011;4394;51.208;8.904;2023-04-09T00:29:52;38.47;;;22.47;;
8714;SDS011;4394;51.208;8.904;2023-04-09T00:32:41;39.97;;;22.47;;
8714;SDS011;4394;51.208;8.904;2023-04-09T00:35:30;43.07;;;23.83;;
8714;SDS011;4394;51.208;8.904;2023-04-09T00:38:18;42.37;;;24.77;;
8714;SDS011;4394;51.208;8.904;2023-04-09T00:41:06;42.77;;;23.90;;
8714;SDS011;4394;51.208;8.904;2023-04-09T00:43:55;40.97;;;23.77;;
8714;SDS011;4394;51.208;8.904;2023-04-09T00:46:43;42.10;;;24.13;;
8714;SDS011;4394;51.208;8.904;2023-04-09T00:49:32;42.40;;;24.03;;
8714;SDS011;4394;51.208;8.904;2023-04-09T00:52:21;40.80;;;23.20;;
8714;SDS011;4394;51.208;8.904;2023-04-09T00:55:09;41.07;;;22.93;;
8714;SDS011;4394;51.208;8.904;2023-04-09T00:57:59;48.27;;;24.60;;
8714;SDS011;4394;51.208;8.904;2023-04-09T01:00:48;42.33;;;24.20;;
8714;SDS011;4394;51.208;8.904;2023-04-09T01:03:36;43.07;;;23.20;;
8714;SDS011;4394;51.208;8.904;2023-04-09T01:06:27;43.97;;;22.70;;
8714;SDS011;4394;51.208;8.904;2023-04-09T01:09:23;44.23;;;22.23;;
8714;SDS011;4394;51.208;8.904;2023-04-09T01:12:17;38.50;;;22.63;;
8714;SDS011;4394;51.208;8.904;2023-04-09T01:15:15;46.57;;;23.77;;
8714;SDS011;4394;51.208;8.904;2023-04-09T01:18:09;48.90;;;24.83;;
8714;SDS011;4394;51.208;8.904;2023-04-09T01:21:03;44.93;;;23.80;;
8714;SDS011;4394;51.208;8.904;2023-04-09T01:23:55;43.80;;;25.40;;
8714;SDS011;4394;51.208;8.904;2023-04-09T01:26:53;51.73;;;28.20;;
8714;SDS011;4394;51.208;8.904;2023-04-09T01:29:48;49.00;;;26.90;;
8714;SDS011;4394;51.208;8.904;2023-04-09T01:32:39;45.33;;;25.77;;
8714;SDS011;4394;51.208;8.904;2023-04-09T01:35:29;43.57;;;24.03;;
8714;SDS011;4394;51.208;8.904;2023-04-09T01:38:18;49.53;;;25.27;;
8714;SDS011;4394;51.208;8.904;2023-04-09T01:41:09;48.67;;;24.47;;
8714;SDS011;4394;51.208;8.904;2023-04-09T01:44:01;44.73;;;24.10;;
8714;SDS011;4394;51.208;8.904;2023-04-09T01:46:52;46.27;;;24.27;;
8714;SDS011;4394;51.208;8.904;2023-04-09T01:49:41;44.27;;;24.40;;
8714;SDS011;4394;51.208;8.904;2023-04-09T01:52:30;43.93;;;23.63;;
8714;SDS011;4394;51.208;8.904;2023-04-09T01:55:19;44.93;;;25.43;;
8714;SDS011;4394;51.208;8.904;2023-04-09T01:58:07;48.53;;;26.23;;
8714;SDS011;4394;51.208;8.904;2023-04-09T02:00:56;46.43;;;25.00;;
8714;SDS011;4394;51.208;8.904;2023-04-09T02:03:53;42.27;;;24.23;;
8714;SDS011;4394;51.208;8.904;2023-04-09T02:06:45;43.53;;;24.13;;
8714;SDS011;4394;51.208;8.904;2023-04-09T02:09:38;42.23;;;22.53;;
8714;SDS011;4394;51.208;8.904;2023-04-09T02:12:27;41.50;;;23.07;;
8714;SDS011;4394;51.208;8.904;2023-04-09T02:15:18;43.83;;;23.83;;
8714;SDS011;4394;51.208;8.904;2023-04-09T02:18:19;45.43;;;23.10;;
8714;SDS011;4394;51.208;8.904;2023-04-09T02:21:12;44.37;;;23.57;;
8714;SDS011;4394;51.208;8.904;2023-04-09T02:24:00;42.00;;;22.73;;
8714;SDS011;4394;51.208;8.904;2023-04-09T02:26:48;40.47;;;21.83;;
8714;SDS011;4394;51.208;8.904;2023-04-09T02:29:37;41.30;;;22.87;;
8714;SDS011;4394;51.208;8.904;2023-04-09T02:32:25;45.40;;;23.33;;
8714;SDS011;4394;51.208;8.904;2023-04-09T02:35:14;42.27;;;23.20;;
8714;SDS011;4394;51.208;8.904;2023-04-09T02:38:03;42.20;;;22.17;;
8714;SDS011;4394;51.208;8.904;2023-04-09T02:40:53;43.17;;;22.60;;
8714;SDS011;4394;51.208;8.904;2023-04-09T02:43:41;45.80;;;23.53;;
8714;SDS011;4394;51.208;8.904;2023-04-09T02:46:29;49.20;;;25.33;;
8714;SDS011;4394;51.208;8.904;2023-04-09T02:49:18;48.17;;;23.97;;
8714;SDS011;4394;51.208;8.904;2023-04-09T02:52:06;47.23;;;25.17;;
8714;SDS011;4394;51.208;8.904;2023-04-09T02:54:57;41.50;;;22.90;;
8714;SDS011;4394;51.208;8.904;2023-04-09T02:57:45;44.13;;;24.97;;
8714;SDS011;4394;51.208;8.904;2023-04-09T03:00:33;43.80;;;24.30;;
8714;SDS011;4394;51.208;8.904;2023-04-09T03:03:22;40.90;;;23.10;;
8714;SDS011;4394;51.208;8.904;2023-04-09T03:06:10;39.03;;;22.00;;
8714;SDS011;4394;51.208;8.904;2023-04-09T03:08:58;40.93;;;23.03;;
8714;SDS011;4394;51.208;8.904;2023-04-09T03:11:48;44.03;;;23.30;;
8714;SDS011;4394;51.208;8.904;2023-04-09T03:14:36;46.10;;;24.37;;
8714;SDS011;4394;51.208;8.904;2023-04-09T03:17:24;46.87;;;23.43;;
8714;SDS011;4394;51.208;8.904;2023-04-09T03:20:12;54.77;;;25.70;;
8714;SDS011;4394;51.208;8.904;2023-04-09T03:23:01;42.80;;;23.83;;
8714;SDS011;4394;51.208;8.904;2023-04-09T03:25:58;45.83;;;23.63;;
8714;SDS011;4394;51.208;8.904;2023-04-09T03:28:48;39.63;;;21.80;;
8714;SDS011;4394;51.208;8.904;2023-04-09T03:31:37;45.77;;;23.83;;
8714;SDS011;4394;51.208;8.904;2023-04-09T03:34:25;43.20;;;24.47;;
8714;SDS011;4394;51.208;8.904;2023-04-09T03:37:13;41.57;;;23.63;;
8714;SDS011;4394;51.208;8.904;2023-04-09T03:40:01;45.37;;;24.17;;
8714;SDS011;4394;51.208;8.904;2023-04-09T03:42:50;42.83;;;23.53;;
8714;SDS011;4394;51.208;8.904;2023-04-09T03:45:40;41.73;;;22.73;;
8714;SDS011;4394;51.208;8.904;2023-04-09T03:48:28;40.83;;;23.03;;
8714;SDS011;4394;51.208;8.904;2023-04-09T03:51:16;46.90;;;23.10;;
8714;SDS011;4394;51.208;8.904;2023-04-09T03:54:04;44.63;;;23.53;;
8714;SDS011;4394;51.208;8.904;2023-04-09T03:56:52;43.70;;;23.70;;
8714;SDS011;4394;51.208;8.904;2023-04-09T03:59:41;44.53;;;24.37;;
8714;SDS011;4394;51.208;8.904;2023-04-09T04:02:33;42.23;;;23.57;;
8714;SDS011;4394;51.208;8.904;2023-04-09T04:05:22;42.40;;;22.70;;
8714;SDS011;4394;51.208;8.904;2023-04-09T04:08:11;41.17;;;21.57;;
8714;SDS011;4394;51.208;8.904;2023-04-09T04:11:02;40.87;;;23.07;;
8714;SDS011;4394;51.208;8.904;2023-04-09T04:13:51;40.20;;;21.50;;
8714;SDS011;4394;51.208;8.904;2023-04-09T04:16:41;40.80;;;22.93;;
8714;SDS011;4394;51.208;8.904;2023-04-09T04:19:31;42.50;;;22.93;;
8714;SDS011;4394;51.208;8.904;2023-04-09T04:22:19;52.07;;;23.03;;
8714;SDS011;4394;51.208;8.904;2023-04-09T04:25:09;47.33;;;24.03;;
8714;SDS011;4394;51.208;8.904;2023-04-09T04:27:58;59.03;;;24.57;;
8714;SDS011;4394;51.208;8.904;2023-04-09T04:30:46;347.77;;;41.10;;
8714;SDS011;4394;51.208;8.904;2023-04-09T04:33:34;103.93;;;28.70;;
8714;SDS011;4394;51.208;8.904;2023-04-09T04:36:24;44.60;;;22.40;;
8714;SDS011;4394;51.208;8.904;2023-04-09T04:39:12;121.03;;;26.13;;
8714;SDS011;4394;51.208;8.904;2023-04-09T04:42:01;69.67;;;25.47;;
8714;SDS011;4394;51.208;8.904;2023-04-09T04:44:49;36.80;;;21.20;;
8714;SDS011;4394;51.208;8.904;2023-04-09T04:47:37;44.13;;;21.53;;
8714;SDS011;4394;51.208;8.904;2023-04-09T04:50:25;247.17;;;34.10;;
8714;SDS011;4394;51.208;8.904;2023-04-09T04:53:14;87.93;;;25.07;;
8714;SDS011;4394;51.208;8.904;2023-04-09T04:56:03;282.00;;;35.53;;
8714;SDS011;4394;51.208;8.904;2023-04-09T04:58:51;221.40;;;31.90;;
8714;SDS011;4394;51.208;8.904;2023-04-09T05:01:40;252.13;;;33.27;;
8714;SDS011;4394;51.208;8.904;2023-04-09T05:04:28;152.77;;;28.40;;
8714;SDS011;4394;51.208;8.904;2023-04-09T05:07:16;208.90;;;32.90;;
8714;SDS011;4394;51.208;8.904;2023-04-09T05:10:07;121.10;;;27.17;;
8714;SDS011;4394;51.208;8.904;2023-04-09T05:12:56;302.20;;;36.43;;
8714;SDS011;4394;51.208;8.904;2023-04-09T05:15:44;128.97;;;28.63;;
8714;SDS011;4394;51.208;8.904;2023-04-09T05:18:33;59.60;;;23.23;;
8714;SDS011;4394;51.208;8.904;2023-04-09T05:21:21;54.37;;;23.47;;
8714;SDS011;4394;51.208;8.904;2023-04-09T05:24:09;40.07;;;21.87;;
8714;SDS011;4394;51.208;8.904;2023-04-09T05:26:59;41.13;;;22.67;;
8714;SDS011;4394;51.208;8.904;2023-04-09T05:29:48;62.80;;;24.37;;
8714;SDS011;4394;51.208;8.904;2023-04-09T05:32:36;82.20;;;25.50;;
8714;SDS011;4394;51.208;8.904;2023-04-09T05:35:24;174.17;;;29.70;;
8714;SDS011;4394;51.208;8.904;2023-04-09T05:38:12;94.63;;;25.80;;
8714;SDS011;4394;51.208;8.904;2023-04-09T05:41:01;48.53;;;23.93;;
8714;SDS011;4394;51.208;8.904;2023-04-09T05:43:50;56.50;;;24.00;;
8714;SDS011;4394;51.208;8.904;2023-04-09T05:46:39;61.33;;;23.63;;
8714;SDS011;4394;51.208;8.904;2023-04-09T05:49:28;122.87;;;27.73;;
8714;SDS011;4394;51.208;8.904;2023-04-09T05:52:16;47.20;;;24.17;;
8714;SDS011;4394;51.208;8.904;2023-04-09T05:55:05;53.13;;;24.27;;
8714;SDS011;4394;51.208;8.904;2023-04-09T05:57:55;46.87;;;24.03;;
8714;SDS011;4394;51.208;8.904;2023-04-09T06:00:45;40.63;;;21.67;;
8714;SDS011;4394;51.208;8.904;2023-04-09T06:03:33;38.57;;;22.00;;
8714;SDS011;4394;51.208;8.904;2023-04-09T06:06:21;39.27;;;21.40;;
8714;SDS011;4394;51.208;8.904;2023-04-09T06:09:09;39.50;;;22.17;;
8714;SDS011;4394;51.208;8.904;2023-04-09T06:11:58;38.43;;;22.13;;
8714;SDS011;4394;51.208;8.904;2023-04-09T06:14:46;41.97;;;22.83;;
8714;SDS011;4394;51.208;8.904;2023-04-09T06:17:36;42.67;;;22.40;;
8714;SDS011;4394;51.208;8.904;2023-04-09T06:20:24;37.80;;;22.97;;
8714;SDS011;4394;51.208;8.904;2023-04-09T06:23:12;38.87;;;22.70;;
8714;SDS011;4394;51.208;8.904;2023-04-09T06:26:01;41.90;;;23.07;;
8714;SDS011;4394;51.208;8.904;2023-04-09T06:28:49;40.37;;;21.83;;
8714;SDS011;4394;51.208;8.904;2023-04-09T06:31:37;36.83;;;22.17;;
8714;SDS011;4394;51.208;8.904;2023-04-09T06:34:27;38.17;;;22.77;;
8714;SDS011;4394;51.208;8.904;2023-04-09T06:37:16;38.17;;;21.83;;
8714;SDS011;4394;51.208;8.904;2023-04-09T06:40:04;37.70;;;22.30;;
8714;SDS011;4394;51.208;8.904;2023-04-09T06:42:53;40.33;;;22.67;;
8714;SDS011;4394;51.208;8.904;2023-04-09T06:45:41;41.13;;;23.63;;
8714;SDS011;4394;51.208;8.904;2023-04-09T06:48:29;41.17;;;23.70;;
8714;SDS011;4394;51.208;8.904;2023-04-09T06:51:19;38.33;;;23.40;;
8714;SDS011;4394;51.208;8.904;2023-04-09T06:54:08;39.20;;;23.03;;
8714;SDS011;4394;51.208;8.904;2023-04-09T06:56:56;43.80;;;24.67;;
8714;SDS011;4394;51.208;8.904;2023-04-09T06:59:44;37.37;;;22.00;;
8714;SDS011;4394;51.208;8.904;2023-04-09T07:02:32;37.53;;;23.20;;
8714;SDS011;4394;51.208;8.904;2023-04-09T07:05:21;39.57;;;22.40;;
8714;SDS011;4394;51.208;8.904;2023-04-09T07:08:11;38.30;;;21.77;;
8714;SDS011;4394;51.208;8.904;2023-04-09T07:10:59;36.50;;;22.17;;
8714;SDS011;4394;51.208;8.904;2023-04-09T07:13:49;42.13;;;22.90;;
8714;SDS011;4394;51.208;8.904;2023-04-09T07:16:37;38.13;;;22.47;;
8714;SDS011;4394;51.208;8.904;2023-04-09T07:19:26;36.17;;;21.37;;
8714;SDS011;4394;51.208;8.904;2023-04-09T07:22:14;37.40;;;21.00;;
8714;SDS011;4394;51.208;8.904;2023-04-09T07:25:04;34.87;;;21.60;;
8714;SDS011;4394;51.208;8.904;2023-04-09T07:27:53;35.93;;;20.67;;
8714;SDS011;4394;51.208;8.904;2023-04-09T07:30:43;35.90;;;20.93;;
8714;SDS011;4394;51.208;8.904;2023-04-09T07:33:32;34.97;;;20.30;;
8714;SDS011;4394;51.208;8.904;2023-04-09T07:36:20;33.90;;;21.00;;
8714;SDS011;4394;51.208;8.904;2023-04-09T07:39:09;35.13;;;21.57;;
8714;SDS011;4394;51.208;8.904;2023-04-09T07:42:00;34.37;;;21.33;;
8714;SDS011;4394;51.208;8.904;2023-04-09T07:44:49;33.50;;;21.57;;
8714;SDS011;4394;51.208;8.904;2023-04-09T07:47:38;36.33;;;21.10;;
8714;SDS011;4394;51.208;8.904;2023-04-09T07:50:27;32.60;;;20.60;;
8714;SDS011;4394;51.208;8.904;2023-04-09T07:53:16;32.93;;;21.00;;
8714;SDS011;4394;51.208;8.904;2023-04-09T07:56:04;36.17;;;20.37;;
8714;SDS011;4394;51.208;8.904;2023-04-09T07:58:54;32.57;;;19.80;;
8714;SDS011;4394;51.208;8.904;2023-04-09T08:01:43;31.90;;;18.97;;
8714;SDS011;4394;51.208;8.904;2023-04-09T08:04:31;30.63;;;19.03;;
8714;SDS011;4394;51.208;8.904;2023-04-09T08:07:20;30.47;;;18.90;;
8714;SDS011;4394;51.208;8.904;2023-04-09T08:10:08;27.83;;;18.17;;
8714;SDS011;4394;51.208;8.904;2023-04-09T08:13:00;31.63;;;19.23;;
8714;SDS011;4394;51.208;8.904;2023-04-09T08:15:50;26.73;;;16.70;;
8714;SDS011;4394;51.208;8.904;2023-04-09T08:18:38;27.60;;;16.90;;
8714;SDS011;4394;51.208;8.904;2023-04-09T08:21:26;27.73;;;18.20;;
8714;SDS011;4394;51.208;8.904;2023-04-09T08:24:15;30.13;;;18.50;;
8714;SDS011;4394;51.208;8.904;2023-04-09T08:27:03;26.83;;;16.63;;
8714;SDS011;4394;51.208;8.904;2023-04-09T08:29:52;25.70;;;16.50;;
8714;SDS011;4394;51.208;8.904;2023-04-09T08:32:41;25.57;;;16.37;;
8714;SDS011;4394;51.208;8.904;2023-04-09T08:35:31;27.00;;;16.43;;
8714;SDS011;4394;51.208;8.904;2023-04-09T08:38:20;26.37;;;16.67;;
8714;SDS011;4394;51.208;8.904;2023-04-09T08:41:14;29.50;;;17.20;;
8714;SDS011;4394;51.208;8.904;2023-04-09T08:44:04;27.37;;;17.57;;
8714;SDS011;4394;51.208;8.904;2023-04-09T08:46:52;28.20;;;17.70;;
8714;SDS011;4394;51.208;8.904;2023-04-09T08:49:45;25.23;;;16.33;;
8714;SDS011;4394;51.208;8.904;2023-04-09T08:52:35;28.70;;;17.80;;
8714;SDS011;4394;51.208;8.904;2023-04-09T08:55:24;24.73;;;16.37;;
8714;SDS011;4394;51.208;8.904;2023-04-09T08:58:12;24.90;;;16.33;;
8714;SDS011;4394;51.208;8.904;2023-04-09T09:01:01;25.13;;;15.97;;
8714;SDS011;4394;51.208;8.904;2023-04-09T09:03:59;23.97;;;15.77;;
8714;SDS011;4394;51.208;8.904;2023-04-09T09:06:50;23.50;;;16.30;;
8714;SDS011;4394;51.208;8.904;2023-04-09T09:09:51;25.83;;;16.27;;
8714;SDS011;4394;51.208;8.904;2023-04-09T09:12:41;21.80;;;14.33;;
8714;SDS011;4394;51.208;8.904;2023-04-09T09:15:29;19.87;;;13.63;;
8714;SDS011;4394;51.208;8.904;2023-04-09T09:18:17;21.00;;;14.60;;
8714;SDS011;4394;51.208;8.904;2023-04-09T09:21:09;22.13;;;14.43;;
8714;SDS011;4394;51.208;8.904;2023-04-09T09:23:59;21.83;;;15.00;;
8714;SDS011;4394;51.208;8.904;2023-04-09T09:26:48;18.70;;;13.67;;
8714;SDS011;4394;51.208;8.904;2023-04-09T09:29:37;18.60;;;13.80;;
8714;SDS011;4394;51.208;8.904;2023-04-09T09:32:28;20.27;;;13.97;;
8714;SDS011;4394;51.208;8.904;2023-04-09T09:35:16;20.53;;;15.50;;
8714;SDS011;4394;51.208;8.904;2023-04-09T09:38:04;19.43;;;14.37;;
8714;SDS011;4394;51.208;8.904;2023-04-09T09:40:54;17.57;;;13.20;;
8714;SDS011;4394;51.208;8.904;2023-04-09T09:43:44;17.20;;;12.73;;
8714;SDS011;4394;51.208;8.904;2023-04-09T09:46:33;18.33;;;13.50;;
8714;SDS011;4394;51.208;8.904;2023-04-09T09:49:23;23.07;;;15.50;;
8714;SDS011;4394;51.208;8.904;2023-04-09T09:52:12;21.00;;;15.13;;
8714;SDS011;4394;51.208;8.904;2023-04-09T09:55:01;20.47;;;14.00;;
8714;SDS011;4394;51.208;8.904;2023-04-09T09:57:54;17.93;;;13.07;;
8714;SDS011;4394;51.208;8.904;2023-04-09T10:00:45;21.50;;;15.20;;
8714;SDS011;4394;51.208;8.904;2023-04-09T10:03:36;19.97;;;14.20;;
8714;SDS011;4394;51.208;8.904;2023-04-09T10:06:26;19.93;;;12.87;;
8714;SDS011;4394;51.208;8.904;2023-04-09T10:09:15;16.27;;;12.27;;
8714;SDS011;4394;51.208;8.904;2023-04-09T10:12:04;18.67;;;12.87;;
8714;SDS011;4394;51.208;8.904;2023-04-09T10:14:55;17.37;;;12.60;;
8714;SDS011;4394;51.208;8.904;2023-04-09T10:17:46;15.37;;;11.83;;
8714;SDS011;4394;51.208;8.904;2023-04-09T10:20:36;17.93;;;12.70;;
8714;SDS011;4394;51.208;8.904;2023-04-09T10:23:31;20.20;;;13.83;;
8714;SDS011;4394;51.208;8.904;2023-04-09T10:26:24;19.90;;;14.10;;
8714;SDS011;4394;51.208;8.904;2023-04-09T10:29:16;18.20;;;12.90;;
8714;SDS011;4394;51.208;8.904;2023-04-09T10:32:06;20.30;;;13.80;;
8714;SDS011;4394;51.208;8.904;2023-04-09T10:34:55;18.13;;;12.30;;
8714;SDS011;4394;51.208;8.904;2023-04-09T10:37:47;16.90;;;12.90;;
8714;SDS011;4394;51.208;8.904;2023-04-09T10:40:39;21.00;;;14.27;;
8714;SDS011;4394;51.208;8.904;2023-04-09T10:43:28;16.53;;;12.10;;
8714;SDS011;4394;51.208;8.904;2023-04-09T10:46:24;16.13;;;12.30;;
8714;SDS011;4394;51.208;8.904;2023-04-09T10:49:16;16.63;;;11.87;;
8714;SDS011;4394;51.208;8.904;2023-04-09T10:52:06;17.57;;;12.10;;
8714;SDS011;4394;51.208;8.904;2023-04-09T10:54:57;17.23;;;12.47;;
8714;SDS011;4394;51.208;8.904;2023-04-09T10:57:45;18.73;;;12.77;;
8714;SDS011;4394;51.208;8.904;2023-04-09T11:00:35;17.27;;;11.93;;
8714;SDS011;4394;51.208;8.904;2023-04-09T11:03:25;16.57;;;12.13;;
8714;SDS011;4394;51.208;8.904;2023-04-09T11:06:17;16.60;;;11.50;;
8714;SDS011;4394;51.208;8.904;2023-04-09T11:09:08;16.87;;;12.80;;
8714;SDS011;4394;51.208;8.904;2023-04-09T11:11:56;17.20;;;12.53;;
8714;SDS011;4394;51.208;8.904;2023-04-09T11:14:44;17.53;;;11.97;;
8714;SDS011;4394;51.208;8.904;2023-04-09T11:17:34;16.30;;;11.53;;
8714;SDS011;4394;51.208;8.904;2023-04-09T11:20:23;16.07;;;12.10;;
8714;SDS011;4394;51.208;8.904;2023-04-09T11:23:14;16.20;;;11.83;;
8714;SDS011;4394;51.208;8.904;2023-04-09T11:26:04;18.07;;;12.47;;
8714;SDS011;4394;51.208;8.904;2023-04-09T11:28:55;16.77;;;11.63;;
8714;SDS011;4394;51.208;8.904;2023-04-09T11:31:46;19.23;;;12.13;;
8714;SDS011;4394;51.208;8.904;2023-04-09T11:34:34;15.73;;;10.87;;
8714;SDS011;4394;51.208;8.904;2023-04-09T11:37:22;17.53;;;11.80;;
8714;SDS011;4394;51.208;8.904;2023-04-09T11:40:16;17.00;;;11.90;;
8714;SDS011;4394;51.208;8.904;2023-04-09T11:43:06;15.27;;;11.63;;
8714;SDS011;4394;51.208;8.904;2023-04-09T11:45:54;19.10;;;12.20;;
8714;SDS011;4394;51.208;8.904;2023-04-09T11:48:43;19.67;;;14.37;;
8714;SDS011;4394;51.208;8.904;2023-04-09T11:51:32;21.60;;;14.80;;
8714;SDS011;4394;51.208;8.904;2023-04-09T11:54:20;17.23;;;12.23;;
8714;SDS011;4394;51.208;8.904;2023-04-09T11:57:10;16.03;;;12.17;;
8714;SDS011;4394;51.208;8.904;2023-04-09T11:59:58;16.03;;;11.57;;
8714;SDS011;4394;51.208;8.904;2023-04-09T12:02:57;17.80;;;12.10;;
8714;SDS011;4394;51.208;8.904;2023-04-09T12:05:47;17.57;;;12.87;;
8714;SDS011;4394;51.208;8.904;2023-04-09T12:08:36;18.70;;;12.00;;
8714;SDS011;4394;51.208;8.904;2023-04-09T12:11:26;15.83;;;11.13;;
8714;SDS011;4394;51.208;8.904;2023-04-09T12:14:20;17.37;;;12.57;;
8714;SDS011;4394;51.208;8.904;2023-04-09T12:17:08;16.70;;;11.70;;
8714;SDS011;4394;51.208;8.904;2023-04-09T12:19:57;16.03;;;11.97;;
8714;SDS011;4394;51.208;8.904;2023-04-09T12:22:45;15.73;;;11.90;;
8714;SDS011;4394;51.208;8.904;2023-04-09T12:25:33;16.10;;;11.67;;
8714;SDS011;4394;51.208;8.904;2023-04-09T12:28:23;15.40;;;11.40;;
8714;SDS011;4394;51.208;8.904;2023-04-09T12:31:13;16.93;;;12.13;;
8714;SDS011;4394;51.208;8.904;2023-04-09T12:34:01;14.33;;;10.57;;
8714;SDS011;4394;51.208;8.904;2023-04-09T12:36:50;16.97;;;11.63;;
8714;SDS011;4394;51.208;8.904;2023-04-09T12:39:38;16.93;;;12.37;;
8714;SDS011;4394;51.208;8.904;2023-04-09T12:42:27;15.90;;;12.33;;
8714;SDS011;4394;51.208;8.904;2023-04-09T12:45:16;17.47;;;12.20;;
8714;SDS011;4394;51.208;8.904;2023-04-09T12:48:06;15.17;;;11.47;;
8714;SDS011;4394;51.208;8.904;2023-04-09T12:50:55;16.77;;;12.30;;
8714;SDS011;4394;51.208;8.904;2023-04-09T12:53:43;16.53;;;11.67;;
8714;SDS011;4394;51.208;8.904;2023-04-09T12:56:31;17.57;;;11.80;;
8714;SDS011;4394;51.208;8.904;2023-04-09T12:59:19;17.20;;;11.90;;
8714;SDS011;4394;51.208;8.904;2023-04-09T13:02:08;15.60;;;11.17;;
8714;SDS011;4394;51.208;8.904;2023-04-09T13:04:58;15.60;;;11.53;;
8714;SDS011;4394;51.208;8.904;2023-04-09T13:07:47;14.87;;;10.27;;
8714;SDS011;4394;51.208;8.904;2023-04-09T13:10:35;11.03;;;8.10;;
8714;SDS011;4394;51.208;8.904;2023-04-09T13:13:23;11.40;;;8.47;;
8714;SDS011;4394;51.208;8.904;2023-04-09T13:16:12;9.37;;;7.47;;
8714;SDS011;4394;51.208;8.904;2023-04-09T13:19:00;9.43;;;7.47;;
8714;SDS011;4394;51.208;8.904;2023-04-09T13:21:50;9.77;;;7.13;;
8714;SDS011;4394;51.208;8.904;2023-04-09T13:24:38;9.77;;;7.70;;
8714;SDS011;4394;51.208;8.904;2023-04-09T13:27:28;8.30;;;6.73;;
8714;SDS011;4394;51.208;8.904;2023-04-09T13:30:16;8.17;;;6.80;;
8714;SDS011;4394;51.208;8.904;2023-04-09T13:33:05;8.83;;;7.10;;
8714;SDS011;4394;51.208;8.904;2023-04-09T13:35:53;8.27;;;6.83;;
8714;SDS011;4394;51.208;8.904;2023-04-09T13:38:44;10.90;;;7.00;;
8714;SDS011;4394;51.208;8.904;2023-04-09T13:41:32;8.43;;;6.67;;
8714;SDS011;4394;51.208;8.904;2023-04-09T13:44:21;8.23;;;6.60;;
8714;SDS011;4394;51.208;8.904;2023-04-09T13:47:09;8.20;;;7.00;;
8714;SDS011;4394;51.208;8.904;2023-04-09T13:49:58;10.23;;;7.70;;
8714;SDS011;4394;51.208;8.904;2023-04-09T13:52:46;9.83;;;7.40;;
8714;SDS011;4394;51.208;8.904;2023-04-09T13:55:37;9.20;;;7.50;;
8714;SDS011;4394;51.208;8.904;2023-04-09T13:58:25;9.67;;;7.40;;
8714;SDS011;4394;51.208;8.904;2023-04-09T14:01:13;9.53;;;7.07;;
8714;SDS011;4394;51.208;8.904;2023-04-09T14:04:01;9.80;;;7.77;;
8714;SDS011;4394;51.208;8.904;2023-04-09T14:06:50;9.43;;;7.37;;
8714;SDS011;4394;51.208;8.904;2023-04-09T14:09:38;9.23;;;7.03;;
8714;SDS011;4394;51.208;8.904;2023-04-09T14:12:28;8.20;;;7.07;;
8714;SDS011;4394;51.208;8.904;2023-04-09T14:15:16;9.10;;;7.20;;
8714;SDS011;4394;51.208;8.904;2023-04-09T14:18:04;8.80;;;7.07;;
8714;SDS011;4394;51.208;8.904;2023-04-09T14:20:52;9.23;;;7.40;;
8714;SDS011;4394;51.208;8.904;2023-04-09T14:23:41;7.73;;;6.63;;
8714;SDS011;4394;51.208;8.904;2023-04-09T14:26:29;8.30;;;6.90;;
8714;SDS011;4394;51.208;8.904;2023-04-09T14:29:18;9.63;;;7.20;;
8714;SDS011;4394;51.208;8.904;2023-04-09T14:32:07;9.57;;;7.43;;
8714;SDS011;4394;51.208;8.904;2023-04-09T14:34:55;9.70;;;7.20;;
8714;SDS011;4394;51.208;8.904;2023-04-09T14:37:44;9.47;;;6.93;;
8714;SDS011;4394;51.208;8.904;2023-04-09T14:40:32;8.03;;;7.20;;
8714;SDS011;4394;51.208;8.904;2023-04-09T14:43:20;8.77;;;7.43;;
8714;SDS011;4394;51.208;8.904;2023-04-09T14:46:10;8.27;;;6.70;;
8714;SDS011;4394;51.208;8.904;2023-04-09T14:48:58;8.23;;;6.93;;
8714;SDS011;4394;51.208;8.904;2023-04-09T14:51:46;8.80;;;6.77;;
8714;SDS011;4394;51.208;8.904;2023-04-09T14:54:34;7.33;;;6.33;;
8714;SDS011;4394;51.208;8.904;2023-04-09T14:57:23;10.07;;;7.20;;
8714;SDS011;4394;51.208;8.904;2023-04-09T15:00:12;9.17;;;6.70;;
8714;SDS011;4394;51.208;8.904;2023-04-09T15:03:02;7.13;;;6.20;;
8714;SDS011;4394;51.208;8.904;2023-04-09T15:05:50;9.13;;;7.63;;
8714;SDS011;4394;51.208;8.904;2023-04-09T15:08:38;9.90;;;7.60;;
8714;SDS011;4394;51.208;8.904;2023-04-09T15:11:26;9.83;;;6.80;;
8714;SDS011;4394;51.208;8.904;2023-04-09T15:14:15;8.13;;;6.67;;
8714;SDS011;4394;51.208;8.904;2023-04-09T15:17:05;9.63;;;7.20;;
8714;SDS011;4394;51.208;8.904;2023-04-09T15:19:55;7.97;;;6.80;;
8714;SDS011;4394;51.208;8.904;2023-04-09T15:22:45;8.70;;;6.77;;
8714;SDS011;4394;51.208;8.904;2023-04-09T15:25:33;9.80;;;7.50;;
8714;SDS011;4394;51.208;8.904;2023-04-09T15:28:22;7.73;;;6.67;;
8714;SDS011;4394;51.208;8.904;2023-04-09T15:31:11;8.83;;;7.03;;
8714;SDS011;4394;51.208;8.904;2023-04-09T15:34:00;8.33;;;7.13;;
8714;SDS011;4394;51.208;8.904;2023-04-09T15:36:52;7.93;;;7.03;;
8714;SDS011;4394;51.208;8.904;2023-04-09T15:39:40;8.00;;;7.00;;
8714;SDS011;4394;51.208;8.904;2023-04-09T15:42:28;9.10;;;7.23;;
8714;SDS011;4394;51.208;8.904;2023-04-09T15:45:17;9.70;;;7.20;;
8714;SDS011;4394;51.208;8.904;2023-04-09T15:48:06;8.43;;;6.67;;
8714;SDS011;4394;51.208;8.904;2023-04-09T15:50:54;7.43;;;6.50;;
8714;SDS011;4394;51.208;8.904;2023-04-09T15:53:44;7.63;;;6.70;;
8714;SDS011;4394;51.208;8.904;2023-04-09T15:56:33;7.67;;;6.70;;
8714;SDS011;4394;51.208;8.904;2023-04-09T15:59:22;7.83;;;6.90;;
8714;SDS011;4394;51.208;8.904;2023-04-09T16:02:10;9.00;;;7.27;;
8714;SDS011;4394;51.208;8.904;2023-04-09T16:04:59;7.33;;;6.53;;
8714;SDS011;4394;51.208;8.904;2023-04-09T16:07:48;8.33;;;6.67;;
8714;SDS011;4394;51.208;8.904;2023-04-09T16:10:39;8.53;;;6.73;;
8714;SDS011;4394;51.208;8.904;2023-04-09T16:13:27;7.83;;;6.60;;
8714;SDS011;4394;51.208;8.904;2023-04-09T16:16:15;7.40;;;6.60;;
8714;SDS011;4394;51.208;8.904;2023-04-09T16:19:04;7.17;;;6.20;;
8714;SDS011;4394;51.208;8.904;2023-04-09T16:21:52;7.10;;;6.40;;
8714;SDS011;4394;51.208;8.904;2023-04-09T16:24:41;7.63;;;6.63;;
8714;SDS011;4394;51.208;8.904;2023-04-09T16:27:31;6.53;;;5.80;;
8714;SDS011;4394;51.208;8.904;2023-04-09T16:30:19;7.43;;;6.33;;
8714;SDS011;4394;51.208;8.904;2023-04-09T16:33:07;7.27;;;5.93;;
8714;SDS011;4394;51.208;8.904;2023-04-09T16:35:56;7.00;;;6.30;;
8714;SDS011;4394;51.208;8.904;2023-04-09T16:38:44;8.30;;;6.40;;
8714;SDS011;4394;51.208;8.904;2023-04-09T16:41:32;6.90;;;5.83;;
8714;SDS011;4394;51.208;8.904;2023-04-09T16:44:23;6.43;;;5.83;;
8714;SDS011;4394;51.208;8.904;2023-04-09T16:47:12;6.10;;;5.50;;
8714;SDS011;4394;51.208;8.904;2023-04-09T16:50:00;7.83;;;6.67;;
8714;SDS011;4394;51.208;8.904;2023-04-09T16:52:48;6.60;;;5.90;;
8714;SDS011;4394;51.208;8.904;2023-04-09T16:55:36;6.50;;;5.73;;
8714;SDS011;4394;51.208;8.904;2023-04-09T16:58:24;6.23;;;5.53;;
8714;SDS011;4394;51.208;8.904;2023-04-09T17:01:15;7.20;;;6.43;;
8714;SDS011;4394;51.208;8.904;2023-04-09T17:04:03;7.10;;;5.90;;
8714;SDS011;4394;51.208;8.904;2023-04-09T17:06:53;7.47;;;6.47;;